createdAt,value
2018-01-24T00:01:02.163Z,83.30
2018-01-24T00:03:29.443Z,83.00
2018-01-24T00:05:55.797Z,83.20
2018-01-24T00:08:22.681Z,82.70
2018-01-24T00:10:48.917Z,83.20
2018-01-24T00:13:15.206Z,83.80
2018-01-24T00:15:41.420Z,84.20
2018-01-24T00:18:07.623Z,84.10
2018-01-24T00:20:33.839Z,84.00
2018-01-24T00:23:00.122Z,83.90
2018-01-24T00:25:26.376Z,83.60
2018-01-24T00:27:52.670Z,83.60
2018-01-24T00:30:18.909Z,83.60
2018-01-24T00:32:45.136Z,84.00
2018-01-24T00:35:12.070Z,83.90
2018-01-24T00:37:38.377Z,84.10
2018-01-24T00:40:04.577Z,84.10
2018-01-24T00:42:31.212Z,83.90
2018-01-24T00:44:57.790Z,83.80
2018-01-24T00:47:24.067Z,83.80
2018-01-24T00:49:50.646Z,83.70
2018-01-24T00:52:16.873Z,83.70
2018-01-24T00:54:43.080Z,84.10
2018-01-24T00:57:09.308Z,84.00
2018-01-24T00:59:35.552Z,83.80
2018-01-24T01:02:01.790Z,84.10
2018-01-24T01:04:28.043Z,84.40
2018-01-24T01:06:54.275Z,84.90
2018-01-24T01:09:20.509Z,84.70
2018-01-24T01:11:46.743Z,84.80
2018-01-24T01:14:13.043Z,84.60
2018-01-24T01:16:39.326Z,84.60
2018-01-24T01:19:05.937Z,85.30
2018-01-24T01:21:32.184Z,85.30
2018-01-24T01:43:54.252Z,86.10
2018-01-24T01:46:20.582Z,86.70
2018-01-24T01:48:46.806Z,86.10
2018-01-24T01:51:13.155Z,85.90
2018-01-24T01:53:39.426Z,85.60
2018-01-24T01:56:05.695Z,85.40
2018-01-24T01:58:31.915Z,85.00
2018-01-24T02:00:58.218Z,84.70
2018-01-24T02:03:24.491Z,84.10
2018-01-24T02:05:51.136Z,84.40
2018-01-24T02:08:17.377Z,84.40
2018-01-24T02:10:43.655Z,84.30
2018-01-24T02:13:10.288Z,84.00
2018-01-24T02:15:36.505Z,84.00
2018-01-24T02:18:03.689Z,84.00
2018-01-24T02:20:30.335Z,83.90
2018-01-24T02:22:56.967Z,84.30
2018-01-24T02:25:23.221Z,84.30
2018-01-24T02:27:49.515Z,84.40
2018-01-24T02:30:15.776Z,84.60
2018-01-24T02:32:42.034Z,84.60
2018-01-24T02:35:08.289Z,84.50
2018-01-24T02:37:34.509Z,84.90
2018-01-24T02:40:00.777Z,85.00
2018-01-24T02:42:27.028Z,85.70
2018-01-24T02:44:53.257Z,85.80
2018-01-24T02:47:19.505Z,85.30
2018-01-24T02:49:45.813Z,84.70
2018-01-24T02:52:12.049Z,85.10
2018-01-24T02:54:38.253Z,84.90
2018-01-24T02:57:04.521Z,85.00
2018-01-24T02:59:30.774Z,85.10
2018-01-24T03:01:57.012Z,85.70
2018-01-24T03:04:23.246Z,86.30
2018-01-24T03:06:49.909Z,86.20
2018-01-24T03:09:16.199Z,86.20
2018-01-24T03:11:42.405Z,86.90
2018-01-24T03:14:08.631Z,87.20
2018-01-24T03:16:34.869Z,87.20
2018-01-24T03:19:01.117Z,87.10
2018-01-24T03:21:27.380Z,87.70
2018-01-24T03:23:53.607Z,87.60
2018-01-24T03:26:19.925Z,87.70
2018-01-24T03:28:46.508Z,87.60
2018-01-24T03:31:13.756Z,87.60
2018-01-24T03:33:39.986Z,87.60
2018-01-24T03:36:06.246Z,87.70
2018-01-24T03:38:32.497Z,88.30
2018-01-24T03:40:59.067Z,88.30
2018-01-24T03:43:25.315Z,88.30
2018-01-24T03:45:51.555Z,87.60
2018-01-24T03:48:18.530Z,87.60
2018-01-24T03:50:45.175Z,86.90
2018-01-24T03:53:11.771Z,87.00
2018-01-24T03:55:38.033Z,87.00
2018-01-24T03:58:04.342Z,87.10
2018-01-24T04:00:30.634Z,87.00
2018-01-24T04:02:56.857Z,87.20
2018-01-24T04:05:23.156Z,87.70
2018-01-24T04:07:49.765Z,87.90
2018-01-24T04:10:15.981Z,87.90
2018-01-24T04:12:42.507Z,88.40
2018-01-24T04:15:08.824Z,88.70
2018-01-24T04:17:35.039Z,88.80
2018-01-24T04:20:01.267Z,88.60
2018-01-24T04:22:27.493Z,88.00
2018-01-24T04:24:53.751Z,88.20
2018-01-24T04:27:19.987Z,88.90
2018-01-24T04:29:46.187Z,89.30
2018-01-24T04:32:12.425Z,88.50
2018-01-24T04:34:38.633Z,88.10
2018-01-24T04:37:04.909Z,87.00
2018-01-24T04:39:31.182Z,87.40
2018-01-24T04:41:57.485Z,87.70
2018-01-24T04:44:24.101Z,87.70
2018-01-24T04:46:50.374Z,87.70
2018-01-24T04:49:16.639Z,87.70
2018-01-24T04:51:42.930Z,87.40
2018-01-24T04:54:09.183Z,87.20
2018-01-24T04:56:35.445Z,86.80
2018-01-24T04:59:01.734Z,86.30
2018-01-24T05:01:28.031Z,86.30
2018-01-24T05:03:54.366Z,86.30
2018-01-24T05:06:20.988Z,86.70
2018-01-24T05:08:47.229Z,86.70
2018-01-24T05:11:13.990Z,86.50
2018-01-24T05:13:40.291Z,86.50
2018-01-24T05:16:06.979Z,86.00
2018-01-24T05:18:33.192Z,86.00
2018-01-24T05:20:59.429Z,85.70
2018-01-24T05:23:25.699Z,85.80
2018-01-24T05:25:51.919Z,85.70
2018-01-24T05:28:18.185Z,85.80
2018-01-24T05:30:44.495Z,85.00
2018-01-24T05:33:10.848Z,84.80
2018-01-24T05:35:37.207Z,84.90
2018-01-24T05:38:03.431Z,84.70
2018-01-24T05:40:29.679Z,83.90
2018-01-24T05:42:55.892Z,84.10
2018-01-24T05:45:22.149Z,84.20
2018-01-24T05:47:48.417Z,84.80
2018-01-24T05:50:14.713Z,85.20
2018-01-24T05:52:40.968Z,85.50
2018-01-24T05:55:07.597Z,84.80
2018-01-24T05:57:34.220Z,85.00
2018-01-24T06:00:00.452Z,85.00
2018-01-24T06:02:27.092Z,84.60
2018-01-24T06:04:53.334Z,84.60
2018-01-24T06:07:19.600Z,84.10
2018-01-24T06:09:45.849Z,84.00
2018-01-24T06:12:12.101Z,84.30
2018-01-24T06:14:38.361Z,83.80
2018-01-24T06:17:04.578Z,84.00
2018-01-24T06:19:31.837Z,84.50
2018-01-24T06:21:58.100Z,84.50
2018-01-24T06:24:24.329Z,84.80
2018-01-24T06:26:50.584Z,84.80
2018-01-24T06:29:16.897Z,85.20
2018-01-24T06:31:43.172Z,85.10
2018-01-24T06:34:09.485Z,85.20
2018-01-24T06:36:35.752Z,85.90
2018-01-24T06:39:02.083Z,85.80
2018-01-24T06:41:28.326Z,85.30
2018-01-24T06:43:54.555Z,85.10
2018-01-24T06:46:20.858Z,85.20
2018-01-24T06:48:47.485Z,86.60
2018-01-24T06:51:14.152Z,86.80
2018-01-24T06:53:40.393Z,86.80
2018-01-24T06:56:06.662Z,86.60
2018-01-24T06:58:32.904Z,86.60
2018-01-24T07:00:59.525Z,86.80
2018-01-24T07:03:25.856Z,86.80
2018-01-24T07:05:52.114Z,87.00
2018-01-24T07:08:18.896Z,87.20
2018-01-24T07:10:45.219Z,87.20
2018-01-24T07:13:23.776Z,87.60
2018-01-24T07:15:50.032Z,87.50
2018-01-24T07:18:16.693Z,88.00
2018-01-24T07:20:42.945Z,88.00
2018-01-24T07:23:09.191Z,87.60
2018-01-24T07:25:35.480Z,87.20
2018-01-24T07:28:01.728Z,86.90
2018-01-24T07:30:28.034Z,86.70
2018-01-24T07:32:54.282Z,87.00
2018-01-24T07:35:27.562Z,87.70
2018-01-24T07:37:53.794Z,87.80
2018-01-24T07:40:20.427Z,87.70
2018-01-24T07:42:46.673Z,87.30
2018-01-24T07:45:12.946Z,87.70
2018-01-24T07:47:39.236Z,87.40
2018-01-24T07:50:05.549Z,87.10
2018-01-24T07:52:31.834Z,87.40
2018-01-24T07:54:58.182Z,86.90
2018-01-24T07:57:24.452Z,86.50
2018-01-24T07:59:50.702Z,86.40
2018-01-24T08:02:16.944Z,87.30
2018-01-24T08:04:43.322Z,87.50
2018-01-24T08:07:09.607Z,87.70
2018-01-24T08:09:35.906Z,88.10
2018-01-24T08:12:02.196Z,87.50
2018-01-24T08:14:28.506Z,86.90
2018-01-24T08:16:55.817Z,86.50
2018-01-24T08:19:22.063Z,87.10
2018-01-24T08:21:48.289Z,86.80
2018-01-24T08:24:14.562Z,86.20
2018-01-24T08:26:40.795Z,85.60
2018-01-24T08:29:07.043Z,85.40
2018-01-24T08:31:40.286Z,84.40
2018-01-24T08:34:06.551Z,83.50
2018-01-24T08:36:32.840Z,83.50
2018-01-24T08:38:59.509Z,83.50
2018-01-24T08:41:25.835Z,83.50
2018-01-24T08:43:52.098Z,83.50
2018-01-24T08:46:18.411Z,83.20
2018-01-24T08:48:44.694Z,82.80
2018-01-24T08:51:10.927Z,82.50
2018-01-24T08:53:37.458Z,82.10
2018-01-24T08:56:03.797Z,82.00
2018-01-24T08:58:29.993Z,81.70
2018-01-24T09:00:56.221Z,81.60
2018-01-24T09:03:22.465Z,81.40
2018-01-24T09:05:48.747Z,80.60
2018-01-24T09:08:14.982Z,80.70
2018-01-24T09:10:41.232Z,80.80
2018-01-24T09:13:07.535Z,80.60
2018-01-24T09:15:33.810Z,79.40
2018-01-24T09:18:00.125Z,80.00
2018-01-24T09:20:26.368Z,80.00
2018-01-24T09:22:52.669Z,79.80
2018-01-24T09:25:18.982Z,80.90
2018-01-24T09:27:45.288Z,81.30
2018-01-24T09:30:11.956Z,81.50
2018-01-24T09:32:38.199Z,81.50
2018-01-24T09:35:04.463Z,81.70
2018-01-24T09:37:30.689Z,82.20
2018-01-24T09:39:56.965Z,82.60
2018-01-24T09:42:23.243Z,82.60
2018-01-24T09:44:50.321Z,82.10
2018-01-24T09:47:16.586Z,81.70
2018-01-24T09:49:42.804Z,81.40
2018-01-24T09:52:09.997Z,82.80
2018-01-24T09:54:36.250Z,83.70
2018-01-24T09:57:02.557Z,83.50
2018-01-24T09:59:28.866Z,83.50
2018-01-24T10:01:55.157Z,82.80
2018-01-24T10:04:21.441Z,83.50
2018-01-24T10:06:47.728Z,83.20
2018-01-24T10:09:14.025Z,82.60
2018-01-24T10:11:40.719Z,84.10
2018-01-24T10:14:07.291Z,84.10
2018-01-24T10:16:33.896Z,83.20
2018-01-24T10:19:00.129Z,83.20
2018-01-24T10:21:26.405Z,83.30
2018-01-24T10:23:52.648Z,83.30
2018-01-24T10:26:18.985Z,83.40
2018-01-24T10:28:45.253Z,83.20
2018-01-24T10:31:11.502Z,82.30
2018-01-24T10:33:38.159Z,79.30
2018-01-24T10:36:04.436Z,79.30
2018-01-24T10:38:30.715Z,76.30
2018-01-24T10:40:56.960Z,74.90
2018-01-24T10:43:23.197Z,71.70
2018-01-24T10:45:49.470Z,70.00
2018-01-24T10:48:16.157Z,64.70
2018-01-24T10:50:42.473Z,64.70
2018-01-24T10:53:08.752Z,61.00
2018-01-24T10:55:35.023Z,62.00
2018-01-24T10:58:01.316Z,61.50
2018-01-24T11:00:27.724Z,61.90
2018-01-24T11:02:54.005Z,64.10
2018-01-24T11:05:27.222Z,65.70
2018-01-24T11:07:53.502Z,63.90
2018-01-24T11:10:19.819Z,63.00
2018-01-24T11:12:46.259Z,63.40
2018-01-24T11:15:12.540Z,63.70
2018-01-24T11:17:38.791Z,61.50
2018-01-24T11:20:05.076Z,59.30
2018-01-24T11:22:31.717Z,52.10
2018-01-24T11:24:58.353Z,48.90
2018-01-24T11:27:25.005Z,50.00
2018-01-24T11:29:51.283Z,50.00
2018-01-24T11:32:17.613Z,49.30
2018-01-24T11:34:43.998Z,51.20
2018-01-24T11:37:10.248Z,52.50
2018-01-24T11:39:36.500Z,51.40
2018-01-24T11:42:02.833Z,50.90
2018-01-24T11:44:29.072Z,52.70
2018-01-24T11:46:55.357Z,53.60
2018-01-24T11:49:21.614Z,55.50
2018-01-24T11:51:47.877Z,55.80
2018-01-24T11:54:14.561Z,57.40
2018-01-24T11:56:40.814Z,57.40
2018-01-24T11:59:07.097Z,57.00
2018-01-24T12:01:33.341Z,58.00
2018-01-24T12:03:59.655Z,59.00
2018-01-24T12:06:25.937Z,59.60
2018-01-24T12:08:52.211Z,59.90
2018-01-24T12:11:18.475Z,59.40
2018-01-24T12:13:44.722Z,61.50
2018-01-24T12:16:10.970Z,60.00
2018-01-24T12:18:37.616Z,57.30
2018-01-24T12:21:03.910Z,57.30
2018-01-24T12:23:30.247Z,56.30
2018-01-24T12:25:56.502Z,57.60
2018-01-24T12:28:23.610Z,58.50
2018-01-24T12:30:49.918Z,58.30
2018-01-24T12:33:16.192Z,58.80
2018-01-24T12:35:42.473Z,61.60
2018-01-24T12:38:08.759Z,61.50
2018-01-24T12:40:34.998Z,60.80
2018-01-24T12:43:01.286Z,60.70
2018-01-24T12:45:27.559Z,59.80
2018-01-24T12:47:54.234Z,57.70
2018-01-24T12:50:20.466Z,57.70
2018-01-24T12:52:46.722Z,58.00
2018-01-24T12:55:13.002Z,57.50
2018-01-24T12:57:39.285Z,57.70
2018-01-24T13:00:05.575Z,58.50
2018-01-24T13:02:31.874Z,59.80
2018-01-24T13:04:58.234Z,60.90
2018-01-24T13:07:24.531Z,61.90
2018-01-24T13:09:50.770Z,62.70
2018-01-24T13:12:17.128Z,62.90
2018-01-24T13:14:43.386Z,63.10
2018-01-24T13:17:09.680Z,62.80
2018-01-24T13:19:35.947Z,61.70
2018-01-24T13:22:02.231Z,62.00
2018-01-24T13:24:28.490Z,61.00
2018-01-24T13:26:54.747Z,60.50
2018-01-24T13:29:21.035Z,61.40
2018-01-24T13:31:47.309Z,60.70
2018-01-24T13:34:13.544Z,60.00
2018-01-24T13:36:40.212Z,58.80
2018-01-24T13:39:06.511Z,58.80
2018-01-24T13:41:32.830Z,59.20
2018-01-24T13:43:59.117Z,58.10
2018-01-24T13:46:25.414Z,55.20
2018-01-24T13:48:51.706Z,54.50
2018-01-24T13:51:18.009Z,54.80
2018-01-24T13:53:44.261Z,54.30
2018-01-24T13:56:10.574Z,52.70
2018-01-24T13:58:36.848Z,50.70
2018-01-24T14:01:03.493Z,49.50
2018-01-24T14:03:30.182Z,49.50
2018-01-24T14:05:56.499Z,49.50
2018-01-24T14:08:22.794Z,49.30
2018-01-24T14:10:49.474Z,49.70
2018-01-24T14:13:15.774Z,49.70
2018-01-24T14:15:42.023Z,50.20
2018-01-24T14:18:08.291Z,50.60
2018-01-24T14:20:34.577Z,51.20
2018-01-24T14:23:00.896Z,52.10
2018-01-24T14:25:27.217Z,51.80
2018-01-24T14:27:54.164Z,52.80
2018-01-24T14:30:20.472Z,53.50
2018-01-24T14:32:47.106Z,55.40
2018-01-24T14:35:13.789Z,55.70
2018-01-24T14:37:40.042Z,55.70
2018-01-24T14:40:06.358Z,56.30
2018-01-24T14:42:32.613Z,57.50
2018-01-24T14:44:58.937Z,58.50
2018-01-24T14:47:25.774Z,59.00
2018-01-24T14:49:52.078Z,59.90
2018-01-24T14:52:18.412Z,59.60
2018-01-24T14:54:44.674Z,60.20
2018-01-24T14:57:10.963Z,61.20
2018-01-24T14:59:37.276Z,62.70
2018-01-24T15:02:03.949Z,65.50
2018-01-24T15:04:30.233Z,65.50
2018-01-24T15:06:56.517Z,66.30
2018-01-24T15:09:22.823Z,65.90
2018-01-24T15:11:49.124Z,66.40
2018-01-24T15:14:15.439Z,66.40
2018-01-24T15:16:41.666Z,66.40
2018-01-24T15:19:07.976Z,65.10
2018-01-24T15:21:34.241Z,66.00
2018-01-24T15:24:00.543Z,66.50
2018-01-24T15:26:26.834Z,66.80
2018-01-24T15:28:53.151Z,67.10
2018-01-24T15:31:19.444Z,67.80
2018-01-24T15:33:46.132Z,68.50
2018-01-24T15:36:12.420Z,68.50
2018-01-24T15:38:39.037Z,69.10
2018-01-24T15:41:12.076Z,69.80
2018-01-24T15:43:38.372Z,70.20
2018-01-24T15:46:05.057Z,71.60
2018-01-24T15:48:31.403Z,71.60
2018-01-24T15:50:57.743Z,72.00
2018-01-24T15:53:23.992Z,72.50
2018-01-24T15:55:50.280Z,73.00
2018-01-24T15:58:16.560Z,73.40
2018-01-24T16:00:43.185Z,74.50
2018-01-24T16:03:09.487Z,74.50
2018-01-24T16:05:35.824Z,74.80
2018-01-24T16:08:02.189Z,75.20
2018-01-24T16:10:28.864Z,76.30
2018-01-24T16:12:55.144Z,76.30
2018-01-24T16:15:21.567Z,76.70
2018-01-24T16:17:47.894Z,76.60
2018-01-24T16:20:14.276Z,77.20
2018-01-24T16:22:40.585Z,77.20
2018-01-24T16:25:06.885Z,77.40
2018-01-24T16:27:33.229Z,78.00
2018-01-24T16:29:59.688Z,78.00
2018-01-24T16:32:26.191Z,78.00
2018-01-24T16:34:52.422Z,78.20
2018-01-24T16:37:18.742Z,78.60
2018-01-24T16:39:45.897Z,78.80
2018-01-24T16:42:12.192Z,79.10
2018-01-24T16:44:38.518Z,79.10
2018-01-24T16:47:04.795Z,79.70
2018-01-24T16:49:31.132Z,80.10
2018-01-24T16:51:58.273Z,80.10
2018-01-24T16:54:24.568Z,80.40
2018-01-24T16:56:50.867Z,80.10
2018-01-24T16:59:17.186Z,80.40
2018-01-24T17:01:43.844Z,80.10
2018-01-24T17:04:10.148Z,80.10
2018-01-24T17:06:36.551Z,80.30
2018-01-24T17:09:03.001Z,81.70
2018-01-24T17:11:29.403Z,81.40
2018-01-24T17:13:55.719Z,81.10
2018-01-24T17:16:22.009Z,81.30
2018-01-24T17:18:48.723Z,81.80
2018-01-24T17:21:15.040Z,81.80
2018-01-24T17:23:41.316Z,81.30
2018-01-24T17:26:07.997Z,80.50
2018-01-24T17:28:34.371Z,80.50
2018-01-24T17:31:00.710Z,81.00
2018-01-24T17:33:27.351Z,81.30
2018-01-24T17:35:53.684Z,81.40
2018-01-24T17:38:20.438Z,81.40
2018-01-24T17:40:46.707Z,81.50
2018-01-24T17:43:13.344Z,81.80
2018-01-24T17:45:39.647Z,81.20
2018-01-24T17:48:06.005Z,81.60
2018-01-24T17:50:32.341Z,81.40
2018-01-24T17:52:58.666Z,81.20
2018-01-24T17:55:25.068Z,80.80
2018-01-24T17:57:51.417Z,81.20
2018-01-24T18:00:17.742Z,81.50
2018-01-24T18:02:44.050Z,81.20
2018-01-24T18:05:10.336Z,81.70
2018-01-24T18:07:36.675Z,81.70
2018-01-24T18:10:03.062Z,82.70
2018-01-24T18:12:29.420Z,83.20
2018-01-24T18:14:55.713Z,83.90
2018-01-24T18:17:22.077Z,83.90
2018-01-24T18:19:49.127Z,83.80
2018-01-24T18:22:15.474Z,83.70
2018-01-24T18:24:41.844Z,83.60
2018-01-24T18:27:08.124Z,83.80
2018-01-24T18:29:34.448Z,84.50
2018-01-24T18:32:00.807Z,84.50
2018-01-24T18:34:27.550Z,84.10
2018-01-24T18:36:53.860Z,84.00
2018-01-24T18:39:20.248Z,83.70
2018-01-24T18:41:46.554Z,83.00
2018-01-24T18:44:12.908Z,83.30
2018-01-24T18:46:39.265Z,83.20
2018-01-24T18:49:05.531Z,83.40
2018-01-24T18:51:31.883Z,83.40
2018-01-24T18:53:59.664Z,84.00
2018-01-24T18:56:25.913Z,83.70
2018-01-24T18:58:53.171Z,83.20
2018-01-24T19:01:19.481Z,82.90
2018-01-24T19:03:45.802Z,83.00
2018-01-24T19:06:13.229Z,83.60
2018-01-24T19:08:39.989Z,82.90
2018-01-24T19:11:06.298Z,82.90
2018-01-24T19:13:33.104Z,82.30
2018-01-24T19:15:59.475Z,82.30
2018-01-24T19:18:25.804Z,82.10
2018-01-24T19:20:52.498Z,82.30
2018-01-24T19:23:20.004Z,82.30
2018-01-24T19:25:46.329Z,82.30
2018-01-24T19:28:13.004Z,82.80
2018-01-24T19:30:39.275Z,82.80
2018-01-24T19:33:05.600Z,83.80
2018-01-24T19:35:31.905Z,83.70
2018-01-24T19:37:58.188Z,84.00
2018-01-24T19:40:25.510Z,84.30
2018-01-24T19:42:51.875Z,83.90
2018-01-24T19:45:18.894Z,84.20
2018-01-24T19:47:45.195Z,83.80
2018-01-24T19:50:11.538Z,83.70
2018-01-24T19:52:37.869Z,83.80
2018-01-24T19:55:04.273Z,84.10
2018-01-24T19:57:30.545Z,84.10
2018-01-24T19:59:56.835Z,84.10
2018-01-24T20:02:23.203Z,84.20
2018-01-24T20:04:49.515Z,83.50
2018-01-24T20:07:15.873Z,83.50
2018-01-24T20:09:43.100Z,83.70
2018-01-24T20:12:09.434Z,84.10
2018-01-24T20:14:35.701Z,83.80
2018-01-24T20:17:02.121Z,83.80
2018-01-24T20:19:28.814Z,83.60
2018-01-24T20:21:55.093Z,83.60
2018-01-24T20:24:21.786Z,84.20
2018-01-24T20:26:49.083Z,84.20
2018-01-24T20:29:15.837Z,84.20
2018-01-24T20:31:42.491Z,84.80
2018-01-24T20:36:41.896Z,84.40
2018-01-24T20:39:08.608Z,84.00
2018-01-24T20:41:34.944Z,84.00
2018-01-24T20:44:01.257Z,84.20
2018-01-24T20:46:28.512Z,85.30
2018-01-24T20:48:54.894Z,85.20
2018-01-24T20:51:21.230Z,84.80
2018-01-24T20:53:48.504Z,84.50
2018-01-24T20:56:14.961Z,84.90
2018-01-24T20:58:41.301Z,84.80
2018-01-24T21:01:07.708Z,84.60
2018-01-24T21:03:34.080Z,84.60
2018-01-24T21:06:00.399Z,85.10
2018-01-24T21:08:26.788Z,84.80
2018-01-24T21:10:53.040Z,84.30
2018-01-24T21:13:19.365Z,83.30
2018-01-24T21:15:45.721Z,83.40
2018-01-24T21:18:12.308Z,83.60
2018-01-24T21:20:38.586Z,83.60
2018-01-24T21:23:05.309Z,83.90
2018-01-24T21:25:31.591Z,83.90
2018-01-24T21:27:57.895Z,83.90
2018-01-24T21:30:40.119Z,83.80
2018-01-24T21:33:18.619Z,83.80
2018-01-24T21:35:57.584Z,83.70
2018-01-24T21:38:23.827Z,83.70
2018-01-24T21:40:50.189Z,83.70
2018-01-24T21:43:16.927Z,83.20
2018-01-24T21:45:43.195Z,83.20
2018-01-24T21:48:09.469Z,83.10
2018-01-24T21:50:35.746Z,82.90
2018-01-24T21:53:02.116Z,83.60
2018-01-24T21:55:28.368Z,83.30
2018-01-24T21:57:54.668Z,83.70
2018-01-24T22:00:20.953Z,84.20
2018-01-24T22:02:47.588Z,83.10
2018-01-24T22:05:14.249Z,83.10
2018-01-24T22:07:40.484Z,83.10
2018-01-24T22:10:06.733Z,82.50
2018-01-24T22:12:33.534Z,82.40
2018-01-24T22:14:59.802Z,82.70
2018-01-24T22:17:26.116Z,82.40
2018-01-24T22:19:52.462Z,82.70
2018-01-24T22:22:18.780Z,82.50
2018-01-24T22:24:45.060Z,82.80
2018-01-24T22:27:11.397Z,83.20
2018-01-24T22:29:37.685Z,82.80
2018-01-24T22:32:03.960Z,82.60
2018-01-24T22:34:30.648Z,82.20
2018-01-24T22:36:57.322Z,82.20
2018-01-24T22:39:23.725Z,82.40
2018-01-24T22:41:50.085Z,82.20
2018-01-24T22:44:16.472Z,82.50
2018-01-24T22:46:42.809Z,82.90
2018-01-24T22:49:09.073Z,82.30
2018-01-24T22:51:35.374Z,82.30
2018-01-24T22:54:01.610Z,82.40
2018-01-24T22:56:27.873Z,81.90
2018-01-24T22:58:54.493Z,81.40
2018-01-24T23:01:20.784Z,81.40
2018-01-24T23:03:47.227Z,81.50
2018-01-24T23:06:13.518Z,81.50
2018-01-24T23:08:39.839Z,81.10
2018-01-24T23:11:06.468Z,81.10
2018-01-24T23:13:33.156Z,81.00
2018-01-24T23:15:59.380Z,81.00
2018-01-24T23:18:25.648Z,81.10
2018-01-24T23:20:51.894Z,81.20
2018-01-24T23:23:18.182Z,81.30
2018-01-24T23:25:44.389Z,81.40
2018-01-24T23:28:10.654Z,81.10
2018-01-24T23:30:37.304Z,81.30
2018-01-24T23:33:03.667Z,81.30
2018-01-24T23:35:29.916Z,81.20
2018-01-24T23:37:56.167Z,81.20
2018-01-24T23:40:22.387Z,81.00
2018-01-24T23:42:48.601Z,81.20
2018-01-24T23:45:14.831Z,81.10
2018-01-24T23:47:41.158Z,81.20
2018-01-24T23:50:07.390Z,81.30
2018-01-24T23:52:34.557Z,81.90
2018-01-24T23:55:00.794Z,82.00
2018-01-24T23:57:27.048Z,81.60
2018-01-24T23:59:53.331Z,82.10
